createdAt,value
2022-12-31T00:00:34.127Z,2.72
2022-12-31T00:03:01.192Z,2.90
2022-12-31T00:05:33.924Z,2.00
2022-12-31T00:08:01.763Z,2.22
2022-12-31T00:10:29.432Z,1.83
2022-12-31T00:12:56.524Z,2.22
2022-12-31T00:15:23.803Z,1.85
2022-12-31T00:17:50.726Z,2.17
2022-12-31T00:20:17.763Z,2.25
2022-12-31T00:22:44.767Z,1.05
2022-12-31T00:25:11.707Z,1.38
2022-12-31T00:27:38.753Z,0.77
2022-12-31T00:30:06.381Z,0.80
2022-12-31T00:32:33.333Z,1.58
2022-12-31T00:35:00.485Z,0.52
2022-12-31T00:37:27.579Z,0.95
2022-12-31T00:39:54.469Z,1.15
2022-12-31T00:42:21.599Z,1.13
2022-12-31T00:44:48.597Z,0.35
2022-12-31T00:47:15.634Z,0.90
2022-12-31T00:49:42.523Z,1.27
2022-12-31T00:52:09.709Z,0.45
2022-12-31T00:54:36.698Z,1.05
2022-12-31T00:57:04.135Z,0.75
2022-12-31T00:59:31.038Z,1.08
2022-12-31T01:01:58.058Z,0.85
2022-12-31T01:04:25.226Z,1.25
2022-12-31T01:06:52.303Z,1.27
2022-12-31T01:09:19.571Z,1.15
2022-12-31T01:11:53.748Z,1.52
2022-12-31T01:14:20.859Z,2.25
2022-12-31T01:16:56.243Z,1.75
2022-12-31T01:19:26.224Z,1.85
2022-12-31T01:21:56.395Z,2.15
2022-12-31T01:24:26.335Z,1.35
2022-12-31T01:26:58.063Z,2.20
2022-12-31T01:29:26.884Z,2.28
2022-12-31T01:31:54.666Z,2.15
2022-12-31T01:34:24.663Z,1.88
2022-12-31T01:36:51.774Z,1.67
2022-12-31T01:39:18.849Z,2.00
2022-12-31T01:41:47.829Z,2.75
2022-12-31T01:44:27.018Z,2.05
2022-12-31T01:47:02.069Z,1.38
2022-12-31T01:49:41.854Z,1.73
2022-12-31T01:52:11.950Z,2.13
2022-12-31T01:54:51.525Z,2.03
2022-12-31T01:57:19.299Z,2.25
2022-12-31T01:59:46.942Z,0.98
2022-12-31T02:02:16.033Z,1.20
2022-12-31T02:04:43.387Z,1.30
2022-12-31T02:07:13.160Z,2.38
2022-12-31T02:09:42.348Z,1.52
2022-12-31T02:12:10.718Z,1.75
2022-12-31T02:14:48.728Z,2.55
2022-12-31T02:17:18.724Z,2.40
2022-12-31T02:20:20.648Z,2.10
2022-12-31T02:23:06.400Z,2.63
2022-12-31T02:25:55.618Z,2.35
2022-12-31T02:28:31.669Z,2.53
2022-12-31T02:31:25.495Z,4.15
2022-12-31T02:33:54.968Z,2.10
2022-12-31T02:36:27.905Z,2.50
2022-12-31T02:38:56.080Z,1.75
2022-12-31T02:41:41.488Z,1.70
2022-12-31T02:44:27.039Z,1.85
2022-12-31T02:47:10.155Z,1.55
2022-12-31T02:50:03.786Z,1.35
2022-12-31T02:52:59.303Z,1.02
2022-12-31T02:55:26.383Z,2.30
2022-12-31T02:58:05.656Z,1.02
2022-12-31T03:00:56.118Z,0.80
2022-12-31T03:03:26.471Z,0.65
2022-12-31T03:05:55.703Z,2.17
2022-12-31T03:08:26.674Z,1.17
2022-12-31T03:10:57.104Z,1.30
2022-12-31T03:13:24.904Z,0.85
2022-12-31T03:15:51.891Z,1.20
2022-12-31T03:18:39.889Z,2.35
2022-12-31T03:21:31.555Z,0.80
2022-12-31T03:24:17.101Z,1.33
2022-12-31T03:26:44.270Z,1.10
2022-12-31T03:29:11.427Z,1.92
2022-12-31T03:31:38.549Z,1.05
2022-12-31T03:34:05.539Z,1.67
2022-12-31T03:36:32.607Z,2.55
2022-12-31T03:38:59.701Z,2.05
2022-12-31T03:41:26.754Z,0.88
2022-12-31T03:43:53.806Z,1.73
2022-12-31T03:46:26.393Z,1.38
2022-12-31T03:48:55.980Z,1.92
2022-12-31T03:51:22.958Z,2.35
2022-12-31T03:53:50.047Z,0.85
2022-12-31T03:56:17.229Z,1.63
2022-12-31T03:58:47.318Z,0.75
2022-12-31T04:01:17.218Z,1.88
2022-12-31T04:03:44.563Z,0.55
2022-12-31T04:06:11.625Z,1.20
2022-12-31T04:08:39.103Z,1.23
2022-12-31T04:11:06.149Z,0.73
2022-12-31T04:13:33.083Z,0.65
2022-12-31T04:16:00.105Z,2.72
2022-12-31T04:18:27.326Z,1.65
2022-12-31T04:20:54.455Z,1.55
2022-12-31T04:23:21.378Z,1.25
2022-12-31T04:25:48.358Z,1.52
2022-12-31T04:28:15.302Z,1.73
2022-12-31T04:30:43.700Z,2.40
2022-12-31T04:33:10.723Z,1.83
2022-12-31T04:35:37.685Z,2.50
2022-12-31T04:38:04.675Z,1.90
2022-12-31T04:40:31.723Z,2.88
2022-12-31T04:42:58.732Z,1.63
2022-12-31T04:45:25.769Z,1.77
2022-12-31T04:47:52.685Z,1.42
2022-12-31T04:50:19.608Z,1.40
2022-12-31T04:52:46.626Z,0.63
2022-12-31T04:55:13.650Z,1.77
2022-12-31T04:57:41.820Z,0.95
2022-12-31T05:00:09.478Z,1.55
2022-12-31T05:02:36.585Z,0.88
2022-12-31T05:05:03.801Z,1.17
2022-12-31T05:07:30.722Z,1.40
2022-12-31T05:09:57.757Z,1.25
2022-12-31T05:12:24.914Z,1.10
2022-12-31T05:14:51.842Z,1.30
2022-12-31T05:17:20.727Z,1.38
2022-12-31T05:19:47.669Z,1.50
2022-12-31T05:22:29.873Z,1.42
2022-12-31T05:24:58.407Z,1.92
2022-12-31T05:27:26.286Z,1.17
2022-12-31T05:29:53.583Z,1.10
2022-12-31T05:32:20.813Z,1.58
2022-12-31T05:34:47.752Z,1.15
2022-12-31T05:37:15.068Z,0.75
2022-12-31T05:39:42.023Z,0.75
2022-12-31T05:42:08.984Z,0.80
2022-12-31T05:44:35.978Z,1.00
2022-12-31T05:47:02.976Z,0.28
2022-12-31T05:49:29.989Z,0.30
2022-12-31T05:51:57.027Z,0.32
2022-12-31T05:54:23.948Z,0.50
2022-12-31T05:56:50.961Z,0.45
2022-12-31T05:59:18.058Z,0.60
2022-12-31T06:01:47.517Z,0.57
2022-12-31T06:04:17.492Z,0.32
2022-12-31T06:06:44.569Z,0.15
2022-12-31T06:09:11.657Z,0.30
2022-12-31T06:11:38.792Z,0.30
2022-12-31T06:14:05.784Z,0.28
2022-12-31T06:16:32.735Z,0.47
2022-12-31T06:19:01.526Z,0.10
2022-12-31T06:21:29.946Z,0.20
2022-12-31T06:23:57.149Z,0.30
2022-12-31T06:26:25.794Z,0.40
2022-12-31T06:28:52.705Z,0.68
2022-12-31T06:31:20.103Z,0.50
2022-12-31T06:33:47.095Z,0.47
2022-12-31T06:36:15.928Z,0.43
2022-12-31T06:38:45.070Z,0.30
2022-12-31T06:41:14.102Z,0.38
2022-12-31T06:43:42.504Z,0.30
2022-12-31T06:46:12.161Z,0.90
2022-12-31T06:48:39.897Z,0.38
2022-12-31T06:51:13.517Z,2.25
2022-12-31T06:53:46.055Z,0.60
2022-12-31T06:56:19.777Z,0.47
2022-12-31T06:58:47.607Z,0.30
2022-12-31T07:01:42.041Z,1.00
2022-12-31T07:04:46.001Z,0.50
2022-12-31T07:07:27.843Z,0.50
2022-12-31T07:09:54.931Z,0.47
2022-12-31T07:12:51.739Z,0.85
2022-12-31T07:15:52.152Z,0.50
2022-12-31T07:18:56.761Z,1.75
2022-12-31T07:21:39.349Z,0.85
2022-12-31T07:24:08.778Z,0.82
2022-12-31T07:27:05.206Z,0.68
2022-12-31T07:29:45.716Z,1.00
2022-12-31T07:32:37.453Z,0.80
2022-12-31T07:35:16.554Z,0.63
2022-12-31T07:37:46.387Z,0.85
2022-12-31T07:40:46.363Z,0.95
2022-12-31T07:43:25.366Z,1.17
2022-12-31T07:46:03.345Z,1.08
2022-12-31T07:48:30.616Z,3.67
2022-12-31T07:50:58.137Z,1.83
2022-12-31T07:53:26.015Z,3.08
2022-12-31T07:56:00.105Z,2.55
2022-12-31T07:59:04.776Z,2.47
2022-12-31T08:02:17.909Z,1.80
2022-12-31T08:05:02.079Z,2.00
2022-12-31T08:08:06.730Z,2.13
2022-12-31T08:10:59.287Z,2.17
2022-12-31T08:13:27.406Z,1.15
2022-12-31T08:15:55.002Z,1.85
2022-12-31T08:18:24.377Z,1.75
2022-12-31T08:21:19.442Z,1.98
2022-12-31T08:23:54.611Z,0.85
2022-12-31T08:26:38.458Z,1.75
2022-12-31T08:29:13.055Z,0.80
2022-12-31T08:31:50.494Z,1.45
2022-12-31T08:34:44.054Z,2.85
2022-12-31T08:37:12.928Z,0.88
2022-12-31T08:39:50.862Z,1.95
2022-12-31T08:42:24.667Z,1.38
2022-12-31T08:44:59.859Z,1.13
2022-12-31T08:48:06.231Z,0.55
2022-12-31T08:50:33.686Z,0.75
2022-12-31T08:53:01.202Z,1.35
2022-12-31T08:55:28.824Z,1.27
2022-12-31T08:58:17.775Z,1.35
2022-12-31T09:00:46.677Z,1.27
2022-12-31T09:03:41.643Z,3.58
2022-12-31T09:06:50.122Z,0.80
2022-12-31T09:09:43.965Z,1.85
2022-12-31T09:12:19.129Z,0.98
2022-12-31T09:15:04.170Z,1.42
2022-12-31T09:17:42.619Z,1.48
2022-12-31T09:20:24.403Z,1.30
2022-12-31T09:22:55.576Z,2.97
2022-12-31T09:25:26.754Z,2.47
2022-12-31T09:28:15.747Z,1.17
2022-12-31T09:30:51.284Z,2.97
2022-12-31T09:33:32.863Z,3.58
2022-12-31T09:36:15.576Z,1.38
2022-12-31T09:39:03.846Z,2.58
2022-12-31T09:42:00.704Z,1.73
2022-12-31T09:44:42.830Z,2.38
2022-12-31T09:47:41.094Z,1.65
2022-12-31T09:50:38.120Z,1.10
2022-12-31T09:53:25.147Z,1.00
2022-12-31T09:55:58.417Z,1.52
2022-12-31T09:58:38.270Z,1.10
2022-12-31T10:01:17.743Z,1.92
2022-12-31T10:04:08.820Z,2.55
2022-12-31T10:06:57.981Z,4.97
2022-12-31T10:09:55.037Z,3.53
2022-12-31T10:12:47.182Z,2.35
2022-12-31T10:15:39.713Z,3.85
2022-12-31T10:18:32.058Z,3.42
2022-12-31T10:21:29.965Z,1.77
2022-12-31T10:24:34.675Z,2.65
2022-12-31T10:27:21.316Z,2.55
2022-12-31T10:30:17.580Z,2.35
2022-12-31T10:32:51.485Z,3.38
2022-12-31T10:35:43.282Z,2.20
2022-12-31T10:38:21.712Z,2.22
2022-12-31T10:40:57.613Z,3.00
2022-12-31T10:43:52.225Z,2.45
2022-12-31T10:46:40.795Z,2.75
2022-12-31T10:49:28.979Z,3.65
2022-12-31T10:52:41.418Z,2.25
2022-12-31T10:55:08.837Z,2.38
2022-12-31T10:58:03.590Z,4.85
2022-12-31T11:01:06.121Z,4.28
2022-12-31T11:04:18.652Z,6.50
2022-12-31T11:07:22.766Z,3.75
2022-12-31T11:10:31.077Z,3.10
2022-12-31T11:13:33.462Z,2.22
2022-12-31T11:16:11.045Z,2.35
2022-12-31T11:19:02.797Z,2.03
2022-12-31T11:21:54.383Z,3.33
2022-12-31T11:24:59.058Z,4.93
2022-12-31T11:27:35.764Z,5.00
2022-12-31T11:30:29.839Z,2.42
2022-12-31T11:33:29.285Z,5.32
2022-12-31T11:36:28.664Z,4.57
2022-12-31T11:39:14.475Z,7.65
2022-12-31T11:41:49.981Z,5.45
2022-12-31T11:44:42.246Z,8.43
2022-12-31T11:47:26.263Z,3.85
2022-12-31T11:50:17.987Z,5.10
2022-12-31T11:52:54.480Z,4.13
2022-12-31T11:55:51.032Z,5.10
2022-12-31T11:58:28.661Z,4.40
2022-12-31T12:01:14.203Z,4.15
2022-12-31T12:03:43.781Z,4.65
2022-12-31T12:06:17.531Z,3.63
2022-12-31T12:08:45.522Z,5.07
2022-12-31T12:11:27.531Z,4.43
2022-12-31T12:13:54.681Z,3.15
2022-12-31T12:16:22.874Z,2.60
2022-12-31T12:18:51.692Z,2.75
2022-12-31T12:21:24.210Z,4.15
2022-12-31T12:24:20.058Z,4.55
2022-12-31T12:26:49.282Z,3.92
2022-12-31T12:29:26.118Z,5.07
2022-12-31T12:32:07.108Z,3.08
2022-12-31T12:34:49.204Z,5.85
2022-12-31T12:37:37.226Z,4.75
2022-12-31T12:40:18.083Z,3.47
2022-12-31T12:42:51.009Z,4.72
2022-12-31T12:45:41.736Z,10.98
2022-12-31T12:48:17.967Z,6.85
2022-12-31T12:50:52.485Z,6.07
2022-12-31T12:53:51.117Z,5.70
2022-12-31T12:56:50.117Z,6.95
2022-12-31T12:59:54.199Z,5.28
2022-12-31T13:02:50.034Z,3.58
2022-12-31T13:05:41.500Z,6.25
2022-12-31T13:08:33.549Z,6.40
2022-12-31T13:11:21.869Z,3.42
2022-12-31T13:13:52.439Z,3.83
2022-12-31T13:16:53.523Z,5.13
2022-12-31T13:19:40.550Z,6.53
2022-12-31T13:22:38.150Z,4.15
2022-12-31T13:25:32.374Z,6.22
2022-12-31T13:28:34.246Z,5.22
2022-12-31T13:31:13.194Z,4.65
2022-12-31T13:33:45.131Z,6.70
2022-12-31T13:36:18.785Z,3.42
2022-12-31T13:38:54.465Z,3.30
2022-12-31T13:41:30.763Z,4.57
2022-12-31T13:44:06.923Z,6.85
2022-12-31T13:46:44.457Z,5.38
2022-12-31T13:49:54.933Z,5.20
2022-12-31T13:52:33.983Z,7.38
2022-12-31T13:55:20.884Z,5.30
2022-12-31T13:57:58.697Z,9.02
2022-12-31T14:00:31.578Z,8.52
2022-12-31T14:03:19.864Z,5.10
2022-12-31T14:05:54.817Z,5.45
2022-12-31T14:08:22.028Z,3.42
2022-12-31T14:11:25.669Z,6.40
2022-12-31T14:16:46.256Z,5.45
2022-12-31T14:19:40.897Z,5.93
2022-12-31T14:22:20.784Z,6.97
2022-12-31T14:24:55.117Z,5.18
2022-12-31T14:27:55.372Z,4.18
2022-12-31T14:30:28.905Z,5.65
2022-12-31T14:33:02.012Z,7.97
2022-12-31T14:36:10.141Z,6.43
2022-12-31T14:38:58.984Z,9.98
2022-12-31T14:41:40.175Z,7.35
2022-12-31T14:44:32.413Z,6.05
2022-12-31T14:47:17.640Z,5.55
2022-12-31T14:50:10.030Z,7.97
2022-12-31T14:52:48.932Z,7.65
2022-12-31T14:55:16.080Z,8.52
2022-12-31T14:58:25.796Z,7.10
2022-12-31T15:00:39.606Z,6.85
2022-12-31T15:03:14.260Z,8.40
2022-12-31T15:05:57.255Z,7.47
2022-12-31T15:08:27.889Z,13.20
2022-12-31T15:12:00.287Z,6.57
2022-12-31T15:14:46.017Z,7.05
2022-12-31T15:17:27.849Z,7.82
2022-12-31T15:22:55.078Z,10.02
2022-12-31T15:25:40.302Z,6.18
2022-12-31T15:28:30.857Z,5.82
2022-12-31T15:31:20.312Z,5.40
2022-12-31T15:33:58.924Z,6.72
2022-12-31T15:36:30.402Z,6.68
2022-12-31T15:39:27.222Z,8.40
2022-12-31T15:44:50.744Z,9.05
2022-12-31T15:47:46.717Z,9.90
2022-12-31T15:50:47.202Z,6.93
2022-12-31T15:54:08.353Z,7.97
2022-12-31T15:56:51.850Z,8.88
2022-12-31T15:59:22.949Z,10.30
2022-12-31T16:01:56.348Z,6.95
2022-12-31T16:04:35.168Z,9.07
2022-12-31T16:07:06.209Z,10.55
2022-12-31T16:09:35.978Z,13.95
2022-12-31T16:12:10.269Z,17.33
2022-12-31T16:14:43.568Z,11.73
2022-12-31T16:17:28.221Z,10.13
2022-12-31T16:19:56.955Z,11.07
2022-12-31T16:22:43.634Z,13.57
2022-12-31T16:25:30.718Z,8.55
2022-12-31T16:27:58.971Z,6.97
2022-12-31T16:30:36.108Z,7.88
2022-12-31T16:33:14.638Z,6.20
2022-12-31T16:36:03.905Z,9.35
2022-12-31T16:39:13.181Z,9.32
2022-12-31T16:41:42.891Z,8.15
2022-12-31T16:45:15.479Z,8.30
2022-12-31T16:47:24.576Z,7.47
2022-12-31T16:52:51.758Z,8.55
2022-12-31T16:55:25.479Z,12.00
2022-12-31T16:58:04.257Z,8.02
2022-12-31T17:00:32.629Z,10.18
2022-12-31T17:03:09.021Z,6.82
2022-12-31T17:06:12.891Z,6.47
2022-12-31T17:08:59.951Z,8.13
2022-12-31T17:11:33.168Z,5.53
2022-12-31T17:14:10.317Z,14.38
2022-12-31T17:17:01.697Z,11.25
2022-12-31T17:19:51.376Z,11.40
2022-12-31T17:22:32.866Z,9.65
2022-12-31T17:25:20.887Z,9.65
2022-12-31T17:28:07.939Z,10.20
2022-12-31T17:30:47.049Z,9.32
2022-12-31T17:33:20.251Z,12.00
2022-12-31T17:35:48.210Z,10.70
2022-12-31T17:38:18.447Z,8.77
2022-12-31T17:40:51.383Z,10.57
2022-12-31T17:43:23.197Z,7.47
2022-12-31T17:45:55.002Z,7.00
2022-12-31T17:48:32.640Z,8.23
2022-12-31T17:51:01.203Z,9.73
2022-12-31T17:53:28.247Z,8.75
2022-12-31T17:56:00.254Z,11.45
2022-12-31T17:58:31.866Z,10.75
2022-12-31T18:01:01.925Z,9.38
2022-12-31T18:03:31.730Z,9.35
2022-12-31T18:05:58.820Z,9.70
2022-12-31T18:08:25.981Z,10.38
2022-12-31T18:10:54.289Z,10.00
2022-12-31T18:13:24.742Z,10.35
2022-12-31T18:15:54.264Z,11.85
2022-12-31T18:18:26.053Z,10.25
2022-12-31T18:20:59.875Z,9.05
2022-12-31T18:23:37.006Z,10.77
2022-12-31T18:26:04.155Z,11.27
2022-12-31T18:28:31.146Z,11.80
2022-12-31T18:30:58.680Z,10.82
2022-12-31T18:33:29.218Z,11.85
2022-12-31T18:36:11.447Z,11.98
2022-12-31T18:38:42.093Z,10.93
2022-12-31T18:41:17.705Z,9.43
2022-12-31T18:43:51.778Z,13.50
2022-12-31T18:46:24.722Z,10.50
2022-12-31T18:48:54.324Z,12.35
2022-12-31T18:51:31.801Z,7.65
2022-12-31T18:54:02.034Z,8.63
2022-12-31T18:56:29.279Z,8.27
2022-12-31T18:58:56.447Z,12.57
2022-12-31T19:01:33.115Z,14.52
2022-12-31T19:04:03.171Z,15.90
2022-12-31T19:06:32.896Z,13.85
2022-12-31T19:09:02.188Z,9.82
2022-12-31T19:11:29.148Z,7.70
2022-12-31T19:13:56.173Z,10.48
2022-12-31T19:16:24.261Z,10.70
2022-12-31T19:18:53.910Z,11.98
2022-12-31T19:21:22.852Z,8.05
2022-12-31T19:23:50.849Z,10.48
2022-12-31T19:26:22.659Z,9.13
2022-12-31T19:28:51.021Z,9.52
2022-12-31T19:31:18.247Z,8.32
2022-12-31T19:33:45.475Z,9.43
2022-12-31T19:36:20.306Z,11.82
2022-12-31T19:38:48.120Z,83.00
2022-12-31T19:41:18.806Z,46.80
2022-12-31T19:43:51.421Z,28.52
2022-12-31T19:46:19.046Z,19.17
2022-12-31T19:48:46.799Z,18.30
2022-12-31T19:51:19.103Z,15.57
2022-12-31T19:53:49.309Z,8.35
2022-12-31T19:56:23.375Z,13.88
2022-12-31T19:58:50.438Z,11.95
2022-12-31T20:01:24.055Z,12.77
2022-12-31T20:03:56.629Z,17.08
2022-12-31T20:06:26.651Z,9.90
2022-12-31T20:08:53.840Z,9.52
2022-12-31T20:11:31.810Z,7.63
2022-12-31T20:13:58.824Z,6.68
2022-12-31T20:16:33.837Z,9.85
2022-12-31T20:19:03.859Z,8.63
2022-12-31T20:21:32.233Z,12.20
2022-12-31T20:24:01.837Z,7.68
2022-12-31T20:26:28.994Z,8.45
2022-12-31T20:28:56.080Z,7.25
2022-12-31T20:31:24.965Z,6.97
2022-12-31T20:33:55.554Z,7.40
2022-12-31T20:36:23.497Z,9.60
2022-12-31T20:38:50.892Z,9.77
2022-12-31T20:41:23.723Z,7.32
2022-12-31T20:43:51.076Z,8.43
2022-12-31T20:46:20.809Z,9.25
2022-12-31T20:48:49.132Z,9.63
2022-12-31T20:51:25.158Z,8.95
2022-12-31T20:54:02.206Z,9.35
2022-12-31T20:57:20.480Z,11.00
2022-12-31T20:59:47.758Z,10.88
2022-12-31T21:02:39.194Z,8.30
2022-12-31T21:05:03.378Z,8.82
2022-12-31T21:07:30.698Z,9.02
2022-12-31T21:10:04.332Z,7.10
2022-12-31T21:12:43.631Z,10.70
2022-12-31T21:15:14.045Z,8.15
2022-12-31T21:17:43.733Z,9.27
2022-12-31T21:20:11.151Z,7.43
2022-12-31T21:22:39.633Z,11.98
2022-12-31T21:25:07.232Z,11.82
2022-12-31T21:27:35.955Z,7.35
2022-12-31T21:30:19.743Z,8.38
2022-12-31T21:32:47.387Z,10.40
2022-12-31T21:38:13.030Z,7.25
2022-12-31T21:40:40.422Z,7.93
2022-12-31T21:43:10.135Z,14.32
2022-12-31T21:45:37.965Z,10.43
2022-12-31T21:48:27.816Z,8.13
2022-12-31T21:51:14.992Z,8.40
2022-12-31T21:53:54.004Z,6.70
2022-12-31T21:56:21.753Z,11.43
2022-12-31T21:59:16.019Z,9.23
2022-12-31T22:02:01.888Z,12.57
2022-12-31T22:07:23.543Z,11.85
2022-12-31T22:09:50.731Z,8.60
2022-12-31T22:12:17.828Z,11.95
2022-12-31T22:15:14.404Z,6.65
2022-12-31T22:17:31.961Z,10.25
2022-12-31T22:20:25.683Z,9.10
2022-12-31T22:22:53.348Z,7.47
2022-12-31T22:25:20.800Z,7.05
2022-12-31T22:28:36.049Z,5.20
2022-12-31T22:30:49.245Z,8.88
2022-12-31T22:33:16.546Z,9.48
2022-12-31T22:35:43.689Z,9.65
2022-12-31T22:38:13.725Z,11.68
2022-12-31T22:40:42.207Z,9.75
2022-12-31T22:43:09.245Z,9.23
2022-12-31T22:45:36.808Z,7.63
2022-12-31T22:48:04.009Z,10.40
2022-12-31T22:50:33.617Z,7.78
2022-12-31T22:53:00.731Z,10.52
2022-12-31T22:55:29.698Z,7.60
2022-12-31T22:57:56.742Z,6.80
2022-12-31T23:01:01.650Z,9.20
2022-12-31T23:03:33.627Z,10.65
2022-12-31T23:06:03.376Z,18.73
2022-12-31T23:08:30.642Z,43.53
2022-12-31T23:11:05.387Z,50.30
2022-12-31T23:14:02.586Z,49.55
2022-12-31T23:16:50.783Z,70.40
2022-12-31T23:19:39.614Z,75.20
2022-12-31T23:22:25.104Z,70.35
2022-12-31T23:24:52.593Z,67.68
2022-12-31T23:27:24.661Z,55.60
2022-12-31T23:29:51.872Z,57.30
2022-12-31T23:32:19.717Z,59.50
2022-12-31T23:34:47.016Z,55.10
2022-12-31T23:37:14.874Z,57.22
2022-12-31T23:39:44.479Z,43.72
2022-12-31T23:42:11.550Z,39.03
2022-12-31T23:44:41.015Z,41.95
2022-12-31T23:47:08.117Z,33.92
2022-12-31T23:49:35.224Z,33.40
2022-12-31T23:52:02.570Z,31.65
2022-12-31T23:54:37.130Z,25.23
2022-12-31T23:57:04.232Z,26.00
2022-12-31T23:59:33.306Z,21.05
